TKI weather

Public forecast

Using degrees Fahrenheit for public forecast. Weather courtesy of forecast.io.

Closest aviation weather report (METAR) to Tokeen Seaplane Base

Closest report is Klawock Airport, 23.1 nm (42.8 km) SSE. Retrieved 2020/08/14 00:53 UTC (41 minutes ago):

PAKW 140053Z AUTO 06004KT 5SM -RA BR SCT033 OVC050 14/12 A3006 RMK AO2 RAE09B19 SLP180 P0000 T01390117 TSNO

Closest aviation forecast (TAF) to Tokeen Seaplane Base

Closest forecast is Klawock Airport, 23.1 nm (42.8 km) SSE. Retrieved 2020-08-14 00:40 UTC (54 minutes ago):

TAF PAKW 132337Z 1400/1424 VRB05KT P6SM -SHRA SCT025 OVC035 FM141000 05004KT 5SM -RA SCT007 OVC015 FM141400 09007KT 3SM -RA BKN007 OVC015 AMD LTD TO CLD VIS AND WIND